Time;durP1;ratioP1;P1;durP2;ratioP2;P2;SDS_P1;SDS_P2;PMS_P1;PMS_P2;Temp;Humidity;BMP_temperature;BMP_pressure;BME280_temperature;BME280_humidity;BME280_pressure;Samples;Min_cycle;Max_cycle;Signal;HPM_P1;HPM_P2
2021/07/22 00:00:32;;;;;;;12.37;10.13;;;22.70;93.00;;;;;;5027519;28;20455;-86
2021/07/22 00:07:03;;;;;;;11.57;10.47;;;22.80;91.50;;;;;;5021313;28;20502;-86
2021/07/22 00:09:30;;;;;;;11.90;10.80;;;22.50;92.10;;;;;;5008103;28;20452;-86
2021/07/22 00:11:57;;;;;;;13.67;11.80;;;22.60;92.90;;;;;;5022848;28;20461;-84
2021/07/22 00:14:28;;;;;;;11.73;10.53;;;22.50;93.00;;;;;;4996637;28;21001;-86
2021/07/22 00:16:55;;;;;;;13.53;11.27;;;22.50;92.50;;;;;;5002657;28;20459;-86
2021/07/22 00:19:22;;;;;;;11.07;9.97;;;22.40;92.80;;;;;;5023011;28;20454;-85
2021/07/22 00:21:48;;;;;;;10.93;9.53;;;22.20;93.00;;;;;;5003870;28;20471;-84
2021/07/22 00:24:15;;;;;;;10.73;9.63;;;22.10;93.00;;;;;;5018651;28;20465;-83
2021/07/22 00:26:42;;;;;;;11.40;9.90;;;21.80;93.80;;;;;;5018731;28;20496;-83
2021/07/22 00:29:08;;;;;;;11.23;9.73;;;21.90;93.40;;;;;;5019654;28;20458;-84
2021/07/22 00:31:35;;;;;;;10.13;9.10;;;21.90;93.20;;;;;;5009651;28;20470;-86
2021/07/22 00:34:02;;;;;;;10.63;9.60;;;21.70;93.50;;;;;;5001059;28;20442;-85
2021/07/22 00:36:29;;;;;;;10.77;9.67;;;21.60;93.80;;;;;;4999660;28;20492;-87
2021/07/22 00:38:55;;;;;;;9.83;8.83;;;21.60;94.20;;;;;;5004365;28;20458;-86
2021/07/22 00:41:22;;;;;;;10.23;9.20;;;21.60;94.40;;;;;;5020084;28;20462;-86
2021/07/22 00:43:49;;;;;;;9.63;8.70;;;21.60;94.70;;;;;;5003591;28;20454;-84
2021/07/22 00:46:16;;;;;;;9.80;8.80;;;21.60;94.60;;;;;;5017521;28;20859;-84
2021/07/22 00:48:43;;;;;;;12.10;10.80;;;21.60;94.70;;;;;;5010145;28;20459;-84
2021/07/22 00:51:10;;;;;;;10.83;9.27;;;21.60;94.80;;;;;;4995390;28;20470;-85
2021/07/22 00:53:37;;;;;;;10.43;8.90;;;21.60;95.00;;;;;;5018583;28;21007;-85
2021/07/22 00:56:05;;;;;;;11.10;9.10;;;21.60;95.00;;;;;;5015612;28;20486;-85
2021/07/22 00:58:32;;;;;;;9.70;8.70;;;21.60;94.90;;;;;;4999523;28;20458;-86
2021/07/22 01:00:59;;;;;;;9.63;8.70;;;21.60;95.10;;;;;;5001074;28;20947;-84
2021/07/22 01:03:26;;;;;;;9.77;8.77;;;21.60;94.90;;;;;;5015790;28;21001;-85
2021/07/22 01:05:53;;;;;;;9.80;8.90;;;21.50;95.30;;;;;;5017695;28;20485;-84
2021/07/22 01:08:20;;;;;;;10.37;9.27;;;21.40;95.50;;;;;;5017483;28;20836;-84
2021/07/22 01:10:47;;;;;;;9.37;8.43;;;21.40;95.60;;;;;;5007443;28;20470;-86
2021/07/22 01:13:14;;;;;;;11.13;10.13;;;21.40;95.60;;;;;;5018370;28;20978;-86
2021/07/22 01:15:43;;;;;;;10.10;9.10;;;21.50;95.40;;;;;;5022998;28;20449;-85
2021/07/22 01:18:10;;;;;;;10.60;9.53;;;21.40;95.40;;;;;;5012765;28;20470;-85
2021/07/22 01:20:36;;;;;;;10.30;9.30;;;21.40;95.20;;;;;;5007164;28;20451;-85
2021/07/22 01:23:03;;;;;;;10.10;8.90;;;21.40;95.10;;;;;;4997224;28;21084;-84
2021/07/22 01:25:30;;;;;;;10.20;9.10;;;21.40;94.90;;;;;;5006781;28;20497;-83
2021/07/22 01:27:57;;;;;;;9.43;8.40;;;21.30;94.80;;;;;;5003129;28;20514;-85
2021/07/22 01:30:24;;;;;;;10.17;8.93;;;21.30;94.90;;;;;;5017518;28;20454;-86
2021/07/22 01:32:54;;;;;;;9.60;8.60;;;21.20;94.70;;;;;;4995347;28;20454;-85
2021/07/22 01:35:20;;;;;;;9.60;8.60;;;21.20;94.50;;;;;;5016312;28;20446;-85
2021/07/22 01:37:50;;;;;;;10.37;8.63;;;21.10;94.50;;;;;;4998952;28;20509;-85
2021/07/22 01:40:18;;;;;;;10.50;9.07;;;21.10;94.60;;;;;;5015724;28;20454;-85
2021/07/22 01:42:45;;;;;;;9.97;8.40;;;21.10;94.60;;;;;;4996675;28;20454;-85
2021/07/22 01:45:12;;;;;;;10.37;8.63;;;21.10;94.80;;;;;;4995835;28;20465;-85
2021/07/22 01:47:40;;;;;;;9.53;8.53;;;21.10;94.90;;;;;;4991921;28;21004;-84
2021/07/22 01:50:09;;;;;;;8.67;7.87;;;21.00;95.00;;;;;;4997596;28;20450;-84
2021/07/22 01:52:36;;;;;;;9.90;8.57;;;21.10;95.10;;;;;;5022169;28;20546;-85
2021/07/22 01:55:03;;;;;;;8.90;8.10;;;21.20;94.90;;;;;;5030801;28;20432;-86
2021/07/22 01:57:30;;;;;;;11.57;9.53;;;21.30;95.00;;;;;;5015021;28;20478;-84
2021/07/22 02:00:04;;;;;;;10.33;9.23;;;21.30;95.30;;;;;;4991981;28;20454;-84
2021/07/22 02:02:32;;;;;;;11.07;8.73;;;21.10;95.30;;;;;;5012389;28;20557;-85
2021/07/22 02:04:59;;;;;;;9.23;8.27;;;21.10;95.70;;;;;;5009346;28;20878;-85
2021/07/22 02:07:26;;;;;;;11.77;9.70;;;21.00;95.70;;;;;;5009453;28;20497;-84
2021/07/22 02:09:53;;;;;;;12.30;9.80;;;21.00;95.90;;;;;;5004418;28;20460;-84
2021/07/22 02:12:20;;;;;;;12.60;9.57;;;21.10;95.70;;;;;;4992595;28;20460;-84
2021/07/22 02:14:50;;;;;;;10.53;9.43;;;21.00;96.00;;;;;;4992211;28;20530;-86
2021/07/22 02:17:19;;;;;;;10.33;9.23;;;21.00;95.70;;;;;;4995565;28;21137;-84
2021/07/22 02:19:46;;;;;;;10.27;9.20;;;21.00;95.50;;;;;;4997090;28;20808;-85
2021/07/22 02:22:15;;;;;;;10.63;9.07;;;20.90;95.90;;;;;;5015878;28;20458;-85
2021/07/22 02:24:42;;;;;;;9.90;8.90;;;20.70;96.50;;;;;;5001317;28;20484;-85
2021/07/22 02:27:08;;;;;;;9.57;8.57;;;20.60;97.10;;;;;;5018911;28;20483;-85
2021/07/22 02:29:35;;;;;;;9.93;8.93;;;20.50;97.40;;;;;;5001300;28;20446;-85
2021/07/22 02:32:04;;;;;;;10.03;8.37;;;20.60;97.20;;;;;;5011983;28;20884;-84
2021/07/22 02:34:31;;;;;;;11.00;9.57;;;20.60;96.80;;;;;;5014345;28;20965;-83
2021/07/22 02:36:58;;;;;;;10.77;8.37;;;20.50;96.30;;;;;;5011903;28;20545;-85
2021/07/22 02:39:25;;;;;;;11.90;9.60;;;20.30;96.40;;;;;;4999058;28;20846;-84
2021/07/22 02:41:52;;;;;;;11.20;9.53;;;20.20;96.80;;;;;;5010450;28;20531;-86
2021/07/22 02:44:19;;;;;;;10.97;9.83;;;20.20;97.00;;;;;;5007261;28;20457;-84
2021/07/22 02:46:45;;;;;;;9.27;8.30;;;20.20;97.40;;;;;;5021030;28;20478;-83
2021/07/22 02:49:12;;;;;;;9.50;8.50;;;20.20;97.80;;;;;;5026363;28;20442;-84
2021/07/22 02:51:39;;;;;;;10.37;8.33;;;20.20;98.00;;;;;;5006540;28;20435;-82
2021/07/22 02:54:05;;;;;;;12.03;9.70;;;20.00;98.20;;;;;;5022781;28;20460;-83
2021/07/22 02:56:32;;;;;;;12.67;10.70;;;20.20;98.40;;;;;;5003182;28;20827;-83
2021/07/22 02:58:59;;;;;;;10.47;9.37;;;20.10;98.30;;;;;;5031282;28;20444;-85
2021/07/22 03:01:25;;;;;;;10.33;9.30;;;20.00;98.60;;;;;;5015670;28;20578;-86
2021/07/22 03:03:52;;;;;;;9.47;8.50;;;20.00;98.60;;;;;;5009812;28;20450;-84
2021/07/22 03:06:19;;;;;;;9.70;8.70;;;19.90;98.80;;;;;;5029892;28;20492;-84
2021/07/22 03:08:45;;;;;;;10.80;9.70;;;20.10;98.70;;;;;;5011021;28;20465;-87
2021/07/22 03:11:12;;;;;;;10.00;8.73;;;20.10;98.70;;;;;;5023301;28;20458;-83
2021/07/22 03:13:39;;;;;;;9.90;8.90;;;20.00;98.90;;;;;;5024610;28;20447;-85
2021/07/22 03:16:06;;;;;;;9.23;8.33;;;19.80;99.40;;;;;;5012225;28;20914;-85
2021/07/22 03:18:33;;;;;;;10.67;9.03;;;19.70;99.80;;;;;;5024363;28;20739;-85
2021/07/22 03:21:01;;;;;;;9.50;8.60;;;19.60;99.90;;;;;;5016930;28;20464;-83
2021/07/22 03:23:28;;;;;;;10.80;9.50;;;19.60;99.90;;;;;;5009169;28;20489;-83
2021/07/22 03:25:55;;;;;;;10.20;8.50;;;19.70;99.90;;;;;;5010378;28;20536;-84
2021/07/22 03:28:23;;;;;;;9.53;8.33;;;19.80;99.90;;;;;;5013038;28;20466;-82
2021/07/22 03:30:50;;;;;;;11.57;9.00;;;19.80;99.90;;;;;;5022327;28;20450;-84
2021/07/22 03:33:17;;;;;;;11.23;9.00;;;19.90;99.90;;;;;;5015741;28;20469;-85
2021/07/22 03:35:43;;;;;;;10.50;9.43;;;19.90;99.90;;;;;;5011318;28;20497;-83
2021/07/22 03:38:10;;;;;;;10.50;9.40;;;19.80;99.90;;;;;;4993441;28;21025;-84
2021/07/22 03:40:37;;;;;;;9.87;8.73;;;19.90;99.90;;;;;;4996861;28;20459;-84
2021/07/22 03:43:04;;;;;;;9.50;8.00;;;19.90;99.90;;;;;;4985081;28;20982;-84
2021/07/22 03:45:31;;;;;;;12.10;8.80;;;19.90;99.90;;;;;;4996216;28;20558;-85
2021/07/22 03:47:59;;;;;;;13.30;8.80;;;19.80;99.90;;;;;;4996318;28;20497;-82
2021/07/22 03:50:26;;;;;;;11.10;9.13;;;19.80;99.90;;;;;;5011273;28;20462;-84
2021/07/22 03:52:55;;;;;;;9.67;8.67;;;19.60;99.90;;;;;;5009648;28;20449;-84
2021/07/22 03:55:26;;;;;;;11.17;8.77;;;19.50;99.90;;;;;;5000331;28;20450;-81
2021/07/22 03:57:55;;;;;;;11.83;8.53;;;19.40;99.90;;;;;;4991728;28;20470;-83
2021/07/22 04:00:23;;;;;;;9.40;8.40;;;19.40;99.90;;;;;;5010600;28;20456;-83
2021/07/22 04:03:04;;;;;;;8.93;8.03;;;19.40;99.90;;;;;;5015309;28;20452;-84
2021/07/22 04:05:31;;;;;;;10.20;8.60;;;19.40;99.90;;;;;;4996095;28;20978;-84
2021/07/22 04:07:59;;;;;;;9.57;8.40;;;19.30;99.90;;;;;;4995125;28;20487;-85
2021/07/22 04:10:27;;;;;;;11.40;7.97;;;19.20;99.90;;;;;;5015458;28;20446;-84
2021/07/22 04:12:58;;;;;;;10.60;8.23;;;19.30;99.90;;;;;;5026108;28;20455;-83
2021/07/22 04:15:26;;;;;;;10.77;9.10;;;19.30;99.90;;;;;;4997234;28;20453;-82
2021/07/22 04:17:54;;;;;;;11.47;8.30;;;19.50;99.90;;;;;;4998413;28;20485;-83
2021/07/22 04:20:21;;;;;;;12.20;9.80;;;19.70;99.90;;;;;;4998524;28;20939;-83
2021/07/22 04:22:49;;;;;;;9.80;8.80;;;19.60;99.90;;;;;;5014606;28;20538;-82
2021/07/22 04:25:16;;;;;;;10.60;9.50;;;19.60;99.90;;;;;;4994879;28;20438;-83
2021/07/22 04:27:43;;;;;;;11.93;10.03;;;19.50;99.90;;;;;;5020108;28;20470;-82
2021/07/22 04:30:10;;;;;;;13.03;9.23;;;19.50;99.90;;;;;;5030765;28;20447;-86
2021/07/22 04:32:37;;;;;;;11.93;10.37;;;19.50;99.90;;;;;;5016438;28;20450;-85
2021/07/22 04:35:08;;;;;;;11.00;9.80;;;19.80;99.90;;;;;;5035821;28;20513;-85
2021/07/22 04:37:38;;;;;;;14.10;11.53;;;19.80;99.90;;;;;;5016793;28;20459;-87
2021/07/22 04:40:06;;;;;;;14.47;12.37;;;19.70;99.90;;;;;;5015087;28;20454;-86
2021/07/22 04:42:35;;;;;;;14.70;12.07;;;19.50;99.90;;;;;;5000750;28;20504;-86
2021/07/22 04:45:02;;;;;;;16.73;13.83;;;19.70;99.90;;;;;;5016888;28;20454;-84
2021/07/22 04:47:29;;;;;;;24.03;13.60;;;19.60;99.90;;;;;;5014978;28;20494;-85
2021/07/22 04:49:56;;;;;;;16.70;12.10;;;19.50;99.90;;;;;;5023148;28;20459;-85
2021/07/22 04:52:25;;;;;;;12.43;11.13;;;19.10;99.90;;;;;;5022897;28;20542;-84
2021/07/22 04:54:54;;;;;;;12.40;10.07;;;19.00;99.90;;;;;;5027271;28;20545;-84
2021/07/22 04:57:21;;;;;;;11.77;10.07;;;19.10;99.90;;;;;;5022242;28;20473;-85
2021/07/22 04:59:47;;;;;;;11.60;10.37;;;19.20;99.90;;;;;;5011186;28;20461;-81
2021/07/22 05:02:19;;;;;;;14.33;11.10;;;19.20;99.90;;;;;;5023247;28;20503;-85
2021/07/22 05:04:46;;;;;;;11.53;9.87;;;19.20;99.90;;;;;;5028045;28;20430;-84
2021/07/22 05:07:12;;;;;;;10.87;9.77;;;19.40;99.90;;;;;;5006207;28;20482;-86
2021/07/22 05:09:40;;;;;;;12.37;10.00;;;19.20;99.90;;;;;;5001035;28;20476;-86
2021/07/22 05:12:07;;;;;;;12.03;9.30;;;19.20;99.90;;;;;;5007137;28;20455;-86
2021/07/22 05:14:38;;;;;;;11.33;8.70;;;19.60;99.90;;;;;;4996837;28;20511;-85
2021/07/22 05:17:05;;;;;;;12.40;7.73;;;19.70;99.90;;;;;;5005505;28;20470;-84
2021/07/22 05:19:31;;;;;;;12.03;8.00;;;19.80;99.70;;;;;;5005140;28;20451;-85
2021/07/22 05:21:58;;;;;;;16.13;9.00;;;19.70;99.80;;;;;;5014319;28;20466;-84
2021/07/22 05:24:25;;;;;;;10.13;8.33;;;19.60;99.90;;;;;;4994154;28;20457;-84
2021/07/22 05:26:52;;;;;;;13.73;9.47;;;19.60;99.90;;;;;;4997375;28;21358;-82
2021/07/22 05:29:19;;;;;;;12.80;8.77;;;19.70;99.90;;;;;;5018642;28;20868;-84
2021/07/22 05:31:46;;;;;;;10.27;9.27;;;19.90;99.90;;;;;;4992252;28;21049;-83
2021/07/22 05:34:14;;;;;;;10.20;8.60;;;19.90;99.90;;;;;;4991248;28;20454;-86
2021/07/22 05:36:41;;;;;;;16.90;9.33;;;19.90;99.90;;;;;;4994894;28;20490;-83
2021/07/22 05:39:10;;;;;;;10.43;8.07;;;19.90;99.90;;;;;;4994924;28;20464;-83
2021/07/22 05:41:37;;;;;;;13.13;9.60;;;19.80;99.90;;;;;;4996457;28;20459;-84
2021/07/22 05:44:04;;;;;;;11.20;9.00;;;19.80;99.90;;;;;;4995869;28;20943;-83
2021/07/22 05:46:32;;;;;;;10.27;9.27;;;19.70;99.90;;;;;;4989114;28;20550;-85
2021/07/22 05:49:00;;;;;;;11.97;9.00;;;19.80;99.90;;;;;;5000315;28;20481;-87
2021/07/22 05:51:30;;;;;;;10.20;8.90;;;19.80;99.90;;;;;;5020145;28;20510;-86
2021/07/22 05:53:57;;;;;;;10.23;9.23;;;19.80;99.90;;;;;;5003004;28;20477;-86
2021/07/22 05:56:25;;;;;;;12.67;10.40;;;19.70;99.90;;;;;;4996763;28;20490;-85
2021/07/22 05:58:53;;;;;;;10.67;8.60;;;19.80;99.90;;;;;;5015107;28;20466;-83
2021/07/22 06:01:21;;;;;;;12.40;9.17;;;19.80;99.90;;;;;;4992135;28;20511;-85
2021/07/22 06:03:48;;;;;;;12.57;10.37;;;19.70;99.90;;;;;;4996856;28;20471;-84
2021/07/22 06:06:14;;;;;;;10.93;9.03;;;19.80;99.90;;;;;;4987946;28;20443;-85
2021/07/22 06:08:44;;;;;;;10.80;9.60;;;20.00;99.90;;;;;;5008364;28;20466;-82
2021/07/22 06:11:14;;;;;;;9.97;8.63;;;20.10;99.90;;;;;;5004406;28;20867;-83
2021/07/22 06:13:41;;;;;;;13.40;10.20;;;20.30;99.90;;;;;;4994644;28;20489;-82
2021/07/22 06:16:14;;;;;;;11.10;8.77;;;20.40;99.50;;;;;;4994724;28;20454;-85
2021/07/22 06:18:42;;;;;;;10.70;8.57;;;20.50;98.90;;;;;;5014494;28;20517;-84
2021/07/22 06:21:14;;;;;;;10.30;8.73;;;20.50;98.90;;;;;;5012557;28;20468;-86
2021/07/22 06:23:41;;;;;;;11.80;8.90;;;20.40;98.90;;;;;;5012133;28;20473;-85
2021/07/22 06:26:08;;;;;;;11.50;9.53;;;20.50;99.30;;;;;;5008037;28;20466;-85
2021/07/22 06:28:34;;;;;;;10.63;9.30;;;20.60;99.00;;;;;;5029268;28;20481;-84
2021/07/22 06:31:01;;;;;;;13.40;9.10;;;20.90;98.30;;;;;;5010865;28;20485;-84
2021/07/22 06:33:28;;;;;;;11.40;8.97;;;21.00;97.90;;;;;;4999169;28;20466;-85
2021/07/22 06:35:55;;;;;;;9.30;7.70;;;21.30;97.10;;;;;;5013199;28;20450;-84
2021/07/22 06:38:30;;;;;;;11.80;9.00;;;21.20;97.10;;;;;;4995404;28;20462;-84
2021/07/22 06:40:57;;;;;;;11.87;9.23;;;21.20;97.00;;;;;;4998509;28;20462;-84
2021/07/22 06:43:26;;;;;;;9.70;8.70;;;21.20;97.40;;;;;;5013319;28;20458;-83
2021/07/22 06:46:10;;;;;;;11.13;8.27;;;21.30;97.00;;;;;;5000820;28;20429;-87
2021/07/22 06:48:41;;;;;;;11.07;9.67;;;21.20;97.00;;;;;;5032198;28;20458;-87
2021/07/22 06:51:28;;;;;;;12.20;10.13;;;21.30;97.20;;;;;;5038422;28;20481;-86
2021/07/22 06:53:57;;;;;;;12.13;9.80;;;21.30;97.00;;;;;;5020349;28;20455;-85
2021/07/22 06:56:24;;;;;;;12.50;8.70;;;21.40;97.40;;;;;;4995784;28;20470;-85
2021/07/22 06:58:58;;;;;;;10.90;9.27;;;21.40;97.00;;;;;;4994800;28;20482;-84
2021/07/22 07:01:31;;;;;;;10.23;9.13;;;21.40;97.00;;;;;;5023902;28;20939;-85
2021/07/22 07:04:22;;;;;;;12.83;9.87;;;21.50;96.80;;;;;;5013932;28;20453;-86
2021/07/22 07:06:48;;;;;;;14.60;9.37;;;21.50;96.80;;;;;;5002243;28;20491;-85
2021/07/22 07:09:15;;;;;;;11.50;9.37;;;21.60;96.70;;;;;;5037133;28;20510;-84
2021/07/22 07:11:42;;;;;;;10.57;9.00;;;21.80;96.50;;;;;;5029414;28;20446;-84
2021/07/22 07:14:09;;;;;;;13.60;9.73;;;21.60;96.50;;;;;;5021102;28;20514;-85
2021/07/22 07:16:39;;;;;;;9.80;8.30;;;22.00;96.50;;;;;;5019884;28;20466;-86
2021/07/22 07:19:08;;;;;;;8.87;7.77;;;22.10;95.60;;;;;;5029724;28;20451;-85
2021/07/22 07:21:38;;;;;;;10.30;7.80;;;22.20;95.40;;;;;;5019272;28;20450;-84
2021/07/22 07:24:06;;;;;;;11.20;9.40;;;22.20;95.40;;;;;;5007343;28;20434;-86
2021/07/22 07:26:32;;;;;;;12.53;8.87;;;22.40;95.00;;;;;;5006813;28;20612;-84
2021/07/22 07:28:59;;;;;;;9.27;7.63;;;22.30;95.00;;;;;;5000458;28;20462;-83
2021/07/22 07:31:26;;;;;;;10.10;7.60;;;22.30;95.00;;;;;;5012481;28;20569;-83
2021/07/22 07:33:53;;;;;;;12.30;8.17;;;22.20;95.20;;;;;;5026068;28;20541;-84
2021/07/22 07:36:20;;;;;;;9.57;8.50;;;22.30;95.00;;;;;;5004458;28;20517;-83
2021/07/22 07:38:47;;;;;;;8.43;7.63;;;22.40;94.80;;;;;;5015414;28;20462;-85
2021/07/22 07:41:13;;;;;;;9.03;8.10;;;22.50;94.50;;;;;;5013779;28;21156;-84
2021/07/22 07:43:40;;;;;;;10.80;8.20;;;22.70;94.00;;;;;;5024561;28;20442;-84
2021/07/22 07:46:07;;;;;;;12.70;8.07;;;22.60;94.10;;;;;;4997033;28;20461;-82
2021/07/22 07:48:35;;;;;;;10.87;8.10;;;22.60;94.20;;;;;;5008837;28;20481;-83
2021/07/22 07:51:05;;;;;;;11.67;8.30;;;22.80;94.00;;;;;;5069493;23;20524;-82
2021/07/22 07:53:32;;;;;;;7.97;6.90;;;22.90;94.00;;;;;;4979291;28;20497;-82
2021/07/22 07:55:58;;;;;;;8.17;7.37;;;22.90;93.60;;;;;;5007905;28;20454;-82
2021/07/22 07:58:43;;;;;;;10.10;8.20;;;22.80;93.70;;;;;;5009458;28;20458;-84
2021/07/22 08:01:09;;;;;;;8.60;7.73;;;22.90;93.50;;;;;;5003227;28;20446;-84
2021/07/22 08:03:39;;;;;;;8.63;7.60;;;23.20;93.20;;;;;;5011251;28;20469;-84
2021/07/22 08:06:09;;;;;;;7.97;7.17;;;23.60;92.80;;;;;;5006331;28;20447;-86
2021/07/22 08:08:36;;;;;;;11.90;8.27;;;23.80;92.00;;;;;;5011038;28;20485;-85
2021/07/22 08:11:03;;;;;;;8.93;8.00;;;24.00;91.80;;;;;;4997257;28;20442;-85
2021/07/22 08:13:30;;;;;;;10.57;8.00;;;24.30;91.30;;;;;;5011571;28;20482;-86
2021/07/22 08:16:00;;;;;;;8.67;7.80;;;24.50;90.50;;;;;;4997386;28;20454;-85
2021/07/22 08:18:27;;;;;;;10.20;8.77;;;24.60;89.90;;;;;;4995452;28;20482;-85
2021/07/22 08:20:54;;;;;;;9.20;7.50;;;24.70;88.70;;;;;;4996873;28;20461;-85
2021/07/22 08:23:21;;;;;;;10.00;8.40;;;24.70;89.00;;;;;;5000167;28;20645;-84
2021/07/22 08:25:48;;;;;;;10.50;8.40;;;25.20;87.60;;;;;;4999327;28;20450;-86
2021/07/22 08:28:15;;;;;;;8.97;8.03;;;25.50;85.90;;;;;;5015154;28;20486;-85
2021/07/22 08:30:42;;;;;;;8.50;7.60;;;25.60;85.70;;;;;;5010661;28;20476;-86
2021/07/22 08:33:09;;;;;;;8.60;7.70;;;25.80;84.40;;;;;;4999024;28;20461;-83
2021/07/22 08:36:16;;;;;;;9.57;8.03;;;26.00;84.00;;;;;;4909758;29;20450;-85
2021/07/22 08:38:50;;;;;;;11.40;8.63;;;26.20;82.80;;;;;;4918113;29;20471;-85
2021/07/22 08:41:17;;;;;;;10.67;9.13;;;26.30;82.90;;;;;;4911735;29;20475;-85
2021/07/22 08:43:52;;;;;;;9.63;8.50;;;26.90;80.50;;;;;;4919507;29;21090;-84
2021/07/22 08:46:19;;;;;;;12.30;8.63;;;27.20;78.60;;;;;;4926952;29;20462;-86
2021/07/22 08:48:47;;;;;;;10.03;8.60;;;27.40;77.30;;;;;;4931063;29;20535;-86
2021/07/22 08:51:13;;;;;;;9.13;8.23;;;27.40;77.20;;;;;;4919326;29;20675;-86
2021/07/22 08:53:41;;;;;;;12.33;8.70;;;27.60;75.40;;;;;;4951428;28;20466;-85
2021/07/22 08:56:08;;;;;;;10.10;8.93;;;27.20;76.80;;;;;;5024784;28;20454;-85
2021/07/22 08:58:39;;;;;;;10.50;8.93;;;27.10;77.10;;;;;;5029861;28;20438;-87
2021/07/22 09:01:10;;;;;;;9.63;8.60;;;27.50;75.40;;;;;;5023495;28;20449;-86
2021/07/22 09:03:39;;;;;;;8.80;7.93;;;27.30;74.90;;;;;;5022788;28;20794;-84
2021/07/22 09:06:24;;;;;;;8.67;7.80;;;27.50;74.20;;;;;;5007970;28;20442;-86
2021/07/22 09:08:54;;;;;;;14.40;8.13;;;28.50;69.40;;;;;;4996775;28;20483;-87
2021/07/22 09:11:25;;;;;;;9.83;8.80;;;29.30;66.10;;;;;;5020367;28;20446;-86
2021/07/22 09:14:09;;;;;;;9.10;8.20;;;29.00;66.20;;;;;;5004303;28;20472;-85
2021/07/22 09:16:59;;;;;;;10.10;8.67;;;29.60;63.80;;;;;;4994564;28;20469;-86
2021/07/22 09:19:39;;;;;;;9.47;8.40;;;29.70;62.10;;;;;;5030905;28;20440;-85
2021/07/22 09:22:08;;;;;;;13.03;9.17;;;29.70;60.90;;;;;;5039500;28;20445;-85
2021/07/22 09:24:58;;;;;;;11.03;9.67;;;29.50;62.10;;;;;;5025951;28;20477;-85
2021/07/22 09:27:46;;;;;;;11.70;9.30;;;30.40;59.30;;;;;;5013073;28;20557;-86
2021/07/22 09:30:19;;;;;;;10.00;9.10;;;30.40;58.30;;;;;;5018869;28;20434;-87
2021/07/22 09:32:49;;;;;;;12.77;9.87;;;30.80;57.70;;;;;;5029574;28;20545;-85
2021/07/22 09:35:21;;;;;;;10.03;8.93;;;30.70;57.70;;;;;;5007236;28;20477;-85
2021/07/22 09:37:51;;;;;;;10.30;9.30;;;30.90;56.50;;;;;;5038026;28;20480;-84
2021/07/22 09:40:38;;;;;;;9.33;8.43;;;30.40;56.90;;;;;;5024892;28;20474;-86
2021/07/22 09:43:27;;;;;;;11.00;9.90;;;30.00;58.10;;;;;;5031203;28;20489;-83
2021/07/22 09:46:03;;;;;;;13.67;8.40;;;31.30;55.80;;;;;;5020427;28;20462;-86
2021/07/22 09:49:10;;;;;;;10.00;7.87;;;32.60;51.60;;;;;;5005954;28;20808;-86
2021/07/22 09:51:40;;;;;;;9.93;8.00;;;33.30;47.50;;;;;;5000941;28;20461;-85
2021/07/22 09:54:12;;;;;;;7.67;6.97;;;33.10;48.70;;;;;;5019126;28;20510;-86
2021/07/22 09:56:42;;;;;;;8.43;7.63;;;33.40;46.60;;;;;;5001809;28;20478;-86
2021/07/22 09:59:09;;;;;;;8.20;7.40;;;33.10;45.80;;;;;;5000764;28;20517;-87
2021/07/22 10:01:45;;;;;;;9.30;8.40;;;33.50;45.50;;;;;;5022992;28;20454;-87
2021/07/22 10:04:14;;;;;;;8.47;7.63;;;33.60;43.90;;;;;;5010387;28;20434;-86
2021/07/22 10:06:44;;;;;;;8.00;7.30;;;34.00;43.60;;;;;;5028332;28;20541;-85
2021/07/22 10:09:18;;;;;;;8.63;7.90;;;33.70;43.30;;;;;;5021904;28;20462;-87
2021/07/22 10:11:46;;;;;;;8.50;7.70;;;33.50;43.30;;;;;;5012566;28;20465;-86
2021/07/22 10:14:17;;;;;;;8.70;8.00;;;33.90;42.50;;;;;;5005804;28;20465;-87
2021/07/22 10:16:51;;;;;;;9.50;8.60;;;33.80;42.10;;;;;;5002326;28;20477;-88
2021/07/22 10:19:19;;;;;;;9.10;8.30;;;34.00;42.50;;;;;;5004159;28;20446;-86
2021/07/22 10:21:47;;;;;;;8.93;8.23;;;34.60;41.90;;;;;;5020499;28;20513;-82
2021/07/22 10:24:16;;;;;;;7.93;7.23;;;34.50;41.10;;;;;;4998905;28;20453;-86
2021/07/22 10:26:48;;;;;;;8.33;7.53;;;34.00;41.50;;;;;;5001681;28;20481;-86
2021/07/22 10:29:16;;;;;;;8.67;7.87;;;34.60;38.80;;;;;;5002242;28;20478;-86
2021/07/22 10:31:46;;;;;;;8.00;7.30;;;34.70;38.40;;;;;;5012887;28;20449;-84
2021/07/22 10:34:17;;;;;;;9.13;8.23;;;33.90;39.20;;;;;;4999383;28;20446;-85
2021/07/22 10:36:48;;;;;;;10.83;9.73;;;32.50;41.20;;;;;;4986530;28;20538;-86
2021/07/22 10:39:15;;;;;;;9.17;8.37;;;31.40;43.40;;;;;;5018150;28;20465;-86
2021/07/22 10:41:43;;;;;;;9.70;8.70;;;30.80;45.70;;;;;;5011456;28;20541;-86
2021/07/22 10:44:31;;;;;;;11.83;9.70;;;30.30;47.70;;;;;;5027048;28;20440;-84
2021/07/22 10:47:05;;;;;;;9.10;7.97;;;29.80;50.00;;;;;;5010501;23;20528;-85
2021/07/22 10:49:37;;;;;;;9.80;8.50;;;29.40;50.30;;;;;;4966566;29;20575;-85
2021/07/22 10:52:05;;;;;;;10.30;9.30;;;29.20;51.40;;;;;;4975944;28;20453;-85
2021/07/22 10:54:40;;;;;;;9.73;8.83;;;28.90;50.80;;;;;;4966337;28;20452;-85
2021/07/22 10:57:42;;;;;;;11.00;9.20;;;28.60;52.40;;;;;;4967072;28;20481;-86
2021/07/22 11:00:10;;;;;;;11.40;9.60;;;28.30;52.80;;;;;;4946069;28;20479;-84
2021/07/22 11:02:46;;;;;;;11.13;8.93;;;28.30;51.90;;;;;;4957687;28;20486;-85
2021/07/22 11:05:24;;;;;;;9.80;8.90;;;28.00;51.70;;;;;;4971608;28;20431;-85
2021/07/22 11:08:19;;;;;;;11.40;10.30;;;27.70;52.40;;;;;;4967189;28;20908;-85
2021/07/22 11:11:01;;;;;;;10.40;9.40;;;28.20;51.60;;;;;;4956978;28;20457;-85
2021/07/22 11:13:37;;;;;;;10.60;9.60;;;28.10;52.10;;;;;;4972930;28;20520;-85
2021/07/22 11:16:07;;;;;;;10.93;9.83;;;28.50;51.00;;;;;;4960836;28;20786;-85
2021/07/22 11:18:43;;;;;;;10.53;9.37;;;28.70;50.50;;;;;;4956036;28;20468;-85
2021/07/22 11:21:11;;;;;;;10.60;9.50;;;28.60;50.90;;;;;;4958875;28;20476;-85
2021/07/22 11:23:41;;;;;;;10.30;9.30;;;28.70;50.60;;;;;;4974284;28;20433;-86
2021/07/22 11:26:08;;;;;;;10.20;9.20;;;28.90;49.80;;;;;;4954039;28;20470;-86
2021/07/22 11:28:48;;;;;;;11.17;10.07;;;28.40;50.70;;;;;;4961930;29;20508;-86
2021/07/22 11:31:15;;;;;;;10.93;9.83;;;28.50;50.40;;;;;;4942575;29;20453;-87
2021/07/22 11:33:42;;;;;;;10.47;9.30;;;28.10;51.10;;;;;;4955172;28;20462;-87
2021/07/22 11:36:12;;;;;;;10.70;9.70;;;27.90;51.90;;;;;;4953310;29;20511;-85
2021/07/22 11:38:39;;;;;;;10.57;9.67;;;27.70;53.00;;;;;;4990141;28;20448;-87
2021/07/22 11:41:13;;;;;;;12.80;10.97;;;27.80;52.60;;;;;;4976886;28;20465;-86
2021/07/22 11:43:54;;;;;;;11.47;10.10;;;27.70;52.40;;;;;;4960583;29;20480;-86
2021/07/22 11:47:03;;;;;;;11.33;10.33;;;27.40;53.10;;;;;;4933450;28;20476;-86
2021/07/22 11:49:34;;;;;;;11.37;10.13;;;27.00;54.40;;;;;;4956286;28;20507;-85
2021/07/22 11:52:01;;;;;;;11.30;10.10;;;26.80;54.40;;;;;;4960271;29;20460;-84
2021/07/22 11:54:27;;;;;;;10.90;9.90;;;26.80;54.70;;;;;;4961453;29;20464;-86
2021/07/22 11:56:57;;;;;;;10.70;9.70;;;27.40;55.00;;;;;;4959097;29;20480;-86
2021/07/22 11:59:31;;;;;;;11.23;10.00;;;27.80;54.00;;;;;;4961882;28;20474;-86
2021/07/22 12:01:59;;;;;;;13.20;10.50;;;27.80;54.00;;;;;;4968668;28;20440;-85
2021/07/22 12:04:32;;;;;;;10.70;9.80;;;28.00;53.80;;;;;;4981239;28;20437;-87
2021/07/22 12:07:05;;;;;;;9.73;8.80;;;29.10;51.20;;;;;;4983282;28;20464;-87
2021/07/22 12:09:32;;;;;;;10.23;9.13;;;29.00;50.90;;;;;;4978879;28;20484;-88
2021/07/22 12:12:02;;;;;;;12.37;10.90;;;28.70;51.50;;;;;;4963507;28;20445;-85
2021/07/22 12:14:38;;;;;;;12.73;10.07;;;28.60;52.00;;;;;;4965980;28;20481;-84
2021/07/22 12:17:10;;;;;;;12.40;9.90;;;28.50;53.10;;;;;;4955650;28;20640;-85
2021/07/22 12:19:39;;;;;;;12.30;11.07;;;28.30;54.00;;;;;;4967195;28;20454;-84
2021/07/22 12:22:26;;;;;;;12.77;11.20;;;28.20;54.40;;;;;;4958109;29;20459;-85
2021/07/22 12:25:12;;;;;;;13.30;10.70;;;28.30;54.40;;;;;;4964735;28;20460;-85
2021/07/22 12:27:46;;;;;;;12.53;11.33;;;28.00;55.00;;;;;;4960963;29;20481;-85
2021/07/22 12:30:13;;;;;;;13.70;11.23;;;27.80;53.80;;;;;;4957577;29;20441;-84
2021/07/22 12:33:20;;;;;;;12.00;10.83;;;28.50;52.90;;;;;;4960545;29;20483;-86
2021/07/22 12:35:47;;;;;;;12.20;9.90;;;29.30;53.30;;;;;;4946247;29;20449;-85
2021/07/22 12:38:14;;;;;;;11.33;10.23;;;29.70;50.80;;;;;;4956263;28;21003;-85
2021/07/22 12:40:56;;;;;;;11.67;10.50;;;29.60;50.70;;;;;;4952368;29;20496;-84
2021/07/22 12:43:26;;;;;;;11.13;10.07;;;30.90;49.10;;;;;;4933947;29;20453;-84
2021/07/22 12:45:54;;;;;;;12.17;11.07;;;30.80;47.70;;;;;;4961175;29;20449;-86
2021/07/22 12:48:37;;;;;;;11.90;10.80;;;30.30;48.70;;;;;;4954558;28;20516;-85
2021/07/22 12:51:14;;;;;;;10.83;9.83;;;30.10;49.20;;;;;;4954331;29;20493;-83
2021/07/22 12:53:44;;;;;;;11.30;10.20;;;29.90;49.60;;;;;;4971580;28;20448;-85
2021/07/22 12:56:11;;;;;;;11.00;10.03;;;30.00;50.20;;;;;;4974116;28;20467;-84